Airfield :
LOGIN :

Register | Disclaimer

   EN    FR    IT 

 










Legend :    VFR   Marginal VFR   IFR   Intensive IFR   Very Intensive IFR
Visi :
Ceiling :
>= 8 km
>= 3000ft
5 to 8 km
1000 to 3000 ft
1500m to 5 km
500 to 1000 ft
800 to 1500m
200 to 500 ft
< 800m
< 200 ft
Symbols :   Thunderstorms  Fog  Heavy snow  Heavy precipitations  Wind > 20 kt
SIGMETs :     Misc.  Thunderstorms  Icing  Turbulence  Mountain Waves  Volcanic Ashes






- Airport Elevation : 526 ft
- IATA code : LTN


EGGW - London Luton

CURRENT METAR :
  • 181350Z AUTO 26013KT 230V300 9999 NCD 12/02 Q1022

EXPIRED METARs :
  • 181320Z AUTO 25008KT 210V300 9999 NCD 12/02 Q1022
  • 181250Z AUTO 25010KT 9999 NCD 12/01 Q1022
  • 181220Z AUTO 25009KT 220V290 9999 NCD 12/02 Q1023
  • 181150Z AUTO 26010KT 210V300 9999 FEW038 12/02 Q1023
  • 181120Z AUTO 24010KT 9999 FEW034 11/03 Q1023
  • 181050Z AUTO 27006KT 210V340 9999 NCD 10/02 Q1023
  • 181020Z AUTO 27005KT 200V330 9999 FEW004 10/03 Q1023
  • 180950Z AUTO 31005KT 260V340 9999 FEW027 09/03 Q1023

TAF TAF EGGW
Valid from the 18 at 12:00 until the 19 at 12:00 UTC


181055Z 1812/1912 26012KT 9999 FEW030
TEMPO 1820/1901 6000 RA
BECMG 1821/1824 BKN012
TEMPO 1901/1907 4000 RADZ BKN006
PROB30
TEMPO 1902/1906 BKN004
BECMG 1907/1910 32013KT SCT025
PROB40
TEMPO 1909/1912 32015G25KT 7000 SHRA
ATIS : +44 1582 395 204



MET'MAP, your aeronautical weather chart ! - Copyright ORBIFLY December 2007 - Disclaimer

ORBIFLY MET'MAP TEAM :

Programming & Development : Alexandra Zaïnal
Original concept : Baudouin d'Aumeries
Technical & hardware support : Manuel Goepfert
Assistance : Marc-Olivier Méhu




SOURCES & CREDITS :

   NOAA